SGAS/ASU METAR and TAF weather

Enter ICAO airport designator
Station Type Date Time Source
SGAS METAR 2022/12/03 00:00 UTC NOAA

SGAS 030000Z 23004KT CAVOK 25/21 Q1009


Station Type Date Time Source
SGAS Decoded METAR 2022/12/03 00:00 UTC NOAA

Asuncion / Aeropuerto, Paraguay (SGAS) 25-16S 057-38W 101M
Dec 02, 2022 - 07:00 PM EST / 2022.12.03 0000 UTC
Wind: from the SW (230 degrees) at 5 MPH (4 KT):0
Visibility: greater than 7 mile(s):0
Temperature: 77 F (25 C)
Dew Point: 69 F (21 C)
Relative Humidity: 78%
Pressure (altimeter): 29.80 in. Hg (1009 hPa)
ob: SGAS 030000Z 23004KT CAVOK 25/21 Q1009
cycle: 0

Station Type Date Time Source
SGAS TAF 2022/12/02 18:44 UTC NOAA

TAF SGAS 021540Z 0218/0318 18005KT 9999 BKN033 TX31/0219Z TN22/0310Z
TEMPO 0218/0222 7000 TSRA BKN027 FEW040CB
BECMG 0300/0302 VRB06KT 9999 SCT033
BECMG 0307/0310 9999 BKN030 PROB40
TEMPO 0311/0315 8000 TSRA BKN027 FEW040CB

Example: see airport list